Terminal Aerodrome Forecast
Issued by NWS Omaha/Valley, NE

Home | Current Version | Previous Version | Text Only | Print | Product List | Glossary On
Versions: 1 2 3 4 5 6 7 8 9 10 11 12 13 14 15 16 17 18 19 20 21 22 23 24 25 26 27 28 29 30 31
000
FTUS43 KOAX 302039 AAA
TAFOFK
TAF AMD
KOFK 302039Z 3021/0118 17015G24KT P6SM SCT020 BKN040
      TEMPO 3021/3024 BKN020
     FM010000 18011KT P6SM BKN020
     FM010200 18008KT P6SM SCT015 BKN050
      TEMPO 0103/0107 4SM BR BKN015
     FM010700 15005KT 4SM BR SCT007 OVC015
      TEMPO 0110/0114 1SM BR OVC007=

USA.gov is the U.S. government's official web portal to all federal, state and local government web resources and services.